Time;durP1;ratioP1;P1;durP2;ratioP2;P2;SDS_P1;SDS_P2;PMS_P1;PMS_P2;Temp;Humidity;BMP_temperature;BMP_pressure;BME280_temperature;BME280_humidity;BME280_pressure;Samples;Min_cycle;Max_cycle;Signal;HPM_P1;HPM_P2
2022/02/09 00:04:33;;;;;;;15.68;2.42;;;11.70;99.90;;;;;;5049600;28;20503;-67
2022/02/09 00:09:24;;;;;;;15.90;2.67;;;11.70;99.90;;;;;;5066602;28;20407;-69
2022/02/09 00:17:29;;;;;;;16.15;2.30;;;11.70;99.90;;;;;;5068574;28;20392;-68
2022/02/09 00:22:44;;;;;;;13.43;2.30;;;11.70;99.90;;;;;;5050869;28;20415;-68
2022/02/09 00:28:27;;;;;;;14.70;2.08;;;11.70;99.90;;;;;;5068322;28;20502;-68
2022/02/09 01:03:02;;;;;;;17.65;2.72;;;11.60;99.90;;;;;;5065862;28;20498;-68
2022/02/09 01:57:46;;;;;;;14.02;2.08;;;11.50;99.90;;;;;;5065412;28;20760;-69
2022/02/09 02:00:13;;;;;;;15.32;2.15;;;11.50;99.90;;;;;;5070691;28;20455;-68
2022/02/09 02:02:39;;;;;;;14.63;2.38;;;11.50;99.90;;;;;;5071209;28;20414;-69
2022/02/09 02:05:05;;;;;;;12.43;2.00;;;11.50;99.90;;;;;;5070566;28;20411;-69
2022/02/09 02:07:44;;;;;;;14.13;2.00;;;11.50;99.90;;;;;;5070586;28;20423;-68
2022/02/09 02:10:12;;;;;;;15.73;2.40;;;11.50;99.90;;;;;;5070027;28;20431;-69
2022/02/09 02:13:29;;;;;;;14.93;2.40;;;11.40;99.90;;;;;;5070726;28;20422;-69
2022/02/09 02:16:14;;;;;;;15.73;2.30;;;11.50;99.90;;;;;;5070467;28;20810;-69
2022/02/09 02:18:42;;;;;;;17.50;2.40;;;11.50;99.90;;;;;;5069492;28;20910;-68
2022/02/09 02:21:24;;;;;;;14.68;2.33;;;11.40;99.90;;;;;;5069508;28;20469;-68
2022/02/09 02:26:35;;;;;;;17.83;2.27;;;11.40;99.90;;;;;;5069354;28;20506;-68
2022/02/09 02:34:39;;;;;;;12.33;2.13;;;11.40;99.90;;;;;;5069940;28;20453;-68
2022/02/09 03:09:56;;;;;;;17.17;2.38;;;11.20;99.90;;;;;;5068058;28;20410;-67
2022/02/09 03:15:16;;;;;;;15.15;2.22;;;11.20;99.90;;;;;;5069314;28;20415;-67
2022/02/09 03:17:46;;;;;;;15.27;2.33;;;11.20;99.90;;;;;;5069622;28;20422;-68
2022/02/09 03:20:28;;;;;;;12.70;2.30;;;11.20;99.90;;;;;;5069271;28;20426;-68
2022/02/09 03:23:01;;;;;;;18.53;2.80;;;11.20;99.90;;;;;;5068588;28;20626;-69
2022/02/09 03:25:47;;;;;;;17.17;2.50;;;11.10;99.90;;;;;;5068563;28;20916;-68
2022/02/09 03:31:22;;;;;;;15.40;2.33;;;11.10;99.90;;;;;;5069644;28;20470;-68
2022/02/09 03:44:54;;;;;;;10.93;2.50;;;11.10;99.90;;;;;;5067857;28;20429;-68
2022/02/09 03:47:34;;;;;;;14.77;2.42;;;11.10;99.90;;;;;;5067200;28;20473;-67
2022/02/09 03:50:26;;;;;;;15.07;2.83;;;11.10;99.90;;;;;;5068587;28;20426;-69
2022/02/09 03:58:06;;;;;;;11.53;2.57;;;11.10;99.90;;;;;;5084397;28;20469;-69
2022/02/09 04:00:38;;;;;;;16.38;2.60;;;11.10;99.90;;;;;;5067642;28;20546;-69
2022/02/09 04:03:09;;;;;;;13.57;2.60;;;11.10;99.90;;;;;;5069527;28;20403;-68
2022/02/09 04:05:34;;;;;;;15.40;2.53;;;11.10;99.90;;;;;;5068920;28;20418;-68
2022/02/09 04:08:01;;;;;;;16.07;3.00;;;11.10;99.90;;;;;;5068438;28;20416;-68
2022/02/09 04:10:36;;;;;;;18.52;2.92;;;11.10;99.90;;;;;;5067727;28;20506;-69
2022/02/09 04:13:22;;;;;;;19.15;3.08;;;11.10;99.90;;;;;;5067222;28;20431;-67
2022/02/09 04:16:05;;;;;;;19.17;3.25;;;11.00;99.90;;;;;;5067987;28;20400;-68
2022/02/09 04:40:28;;;;;;;16.33;3.07;;;10.80;99.90;;;;;;5067119;28;20399;-68
2022/02/09 04:50:25;;;;;;;14.85;3.10;;;10.90;99.90;;;;;;5065347;28;20528;-69
2022/02/09 04:53:03;;;;;;;20.75;3.60;;;10.90;99.90;;;;;;5067136;28;20399;-69
2022/02/09 04:58:04;;;;;;;15.02;3.45;;;10.90;99.90;;;;;;5065589;28;21274;-68
2022/02/09 05:00:45;;;;;;;16.15;3.53;;;10.80;99.90;;;;;;5047264;28;20419;-67
2022/02/09 05:24:59;;;;;;;22.65;6.30;;;10.80;99.90;;;;;;5062501;28;20461;-66
2022/02/09 05:30:10;;;;;;;20.90;6.63;;;10.70;99.90;;;;;;5064110;28;21238;-68
2022/02/09 05:32:36;;;;;;;25.58;6.82;;;10.70;99.90;;;;;;5064579;28;20409;-67
2022/02/09 05:35:02;;;;;;;22.33;6.35;;;10.70;99.90;;;;;;5066353;28;20468;-68
2022/02/09 05:37:27;;;;;;;23.33;5.50;;;10.70;99.90;;;;;;5069918;28;20891;-67
2022/02/09 05:39:53;;;;;;;19.20;5.22;;;10.70;99.90;;;;;;5051838;28;20431;-67
2022/02/09 05:42:18;;;;;;;22.37;5.50;;;10.70;99.90;;;;;;5051482;28;20433;-67
2022/02/09 05:44:44;;;;;;;23.90;6.00;;;10.70;99.90;;;;;;5051655;28;20490;-68
2022/02/09 05:53:35;;;;;;;20.85;5.03;;;10.70;99.90;;;;;;5068616;28;20402;-67
2022/02/09 05:58:12;;;;;;;18.60;5.00;;;10.70;99.90;;;;;;5069843;28;20744;-66
2022/02/09 06:00:41;;;;;;;17.25;5.03;;;10.70;99.90;;;;;;5067992;28;20407;-68
2022/02/09 06:03:07;;;;;;;20.13;4.72;;;10.70;99.90;;;;;;5070289;28;20404;-67
2022/02/09 06:05:33;;;;;;;17.33;5.00;;;10.60;99.90;;;;;;5069202;28;20481;-67
2022/02/09 06:07:59;;;;;;;21.63;5.10;;;10.70;99.90;;;;;;5068941;28;20441;-66
2022/02/09 06:10:29;;;;;;;20.27;5.00;;;10.70;99.90;;;;;;5068256;28;20494;-66
2022/02/09 06:13:47;;;;;;;25.20;5.10;;;10.70;99.90;;;;;;5067748;28;20782;-67
2022/02/09 06:16:07;;;;;;;20.95;4.93;;;10.70;99.90;;;;;;5060761;28;20442;-67
2022/02/09 06:21:18;;;;;;;19.17;4.30;;;10.70;99.90;;;;;;5068382;28;20409;-67
2022/02/09 06:23:44;;;;;;;20.00;4.40;;;10.70;99.90;;;;;;5068193;28;20415;-69
2022/02/09 06:26:09;;;;;;;20.63;4.57;;;10.70;99.90;;;;;;5051665;28;20415;-67
2022/02/09 06:28:35;;;;;;;19.60;4.50;;;10.70;99.90;;;;;;5050533;28;20411;-67
2022/02/09 06:31:00;;;;;;;18.60;4.28;;;10.70;99.90;;;;;;5050690;28;20412;-69
2022/02/09 06:33:26;;;;;;;19.37;4.43;;;10.70;99.90;;;;;;5050187;28;20421;-69
2022/02/09 06:35:58;;;;;;;22.20;4.20;;;10.70;99.90;;;;;;5051173;28;20406;-69
2022/02/09 06:38:23;;;;;;;15.60;3.97;;;10.70;99.90;;;;;;5065255;28;20430;-69
2022/02/09 06:40:54;;;;;;;19.37;4.10;;;10.70;99.90;;;;;;5068593;28;20441;-69
2022/02/09 06:43:19;;;;;;;17.48;4.07;;;10.70;99.90;;;;;;5066590;28;20407;-69
2022/02/09 06:45:45;;;;;;;16.60;4.10;;;10.70;99.90;;;;;;5066983;28;20439;-68
2022/02/09 06:48:16;;;;;;;15.87;3.63;;;10.70;99.90;;;;;;5067496;28;20821;-68
2022/02/09 06:50:48;;;;;;;15.48;4.22;;;10.70;99.90;;;;;;5066949;28;20790;-69
2022/02/09 06:53:30;;;;;;;16.00;4.03;;;10.70;99.90;;;;;;5068465;28;20464;-70
2022/02/09 06:55:59;;;;;;;14.70;4.00;;;10.70;99.90;;;;;;5068346;28;20415;-69
2022/02/09 07:01:06;;;;;;;14.50;3.70;;;10.70;99.90;;;;;;5067557;28;22174;-68
2022/02/09 07:03:32;;;;;;;16.05;4.30;;;10.70;99.90;;;;;;5067606;28;20419;-68
2022/02/09 07:05:58;;;;;;;16.00;4.05;;;10.70;99.90;;;;;;5068698;28;20431;-67
2022/02/09 07:08:24;;;;;;;19.90;4.40;;;10.70;99.90;;;;;;5049429;28;20403;-65
2022/02/09 07:10:49;;;;;;;21.83;4.60;;;10.70;99.90;;;;;;5065418;28;20415;-67
2022/02/09 07:13:15;;;;;;;19.60;4.83;;;10.70;99.90;;;;;;5049461;28;20419;-66
2022/02/09 07:15:45;;;;;;;22.33;4.60;;;10.70;99.90;;;;;;5067534;28;20407;-68
2022/02/09 07:18:14;;;;;;;23.38;4.68;;;10.70;99.90;;;;;;5063025;28;20531;-66
2022/02/09 07:23:32;;;;;;;23.08;5.70;;;10.70;99.90;;;;;;5065712;28;20427;-68
2022/02/09 07:28:26;;;;;;;26.80;5.93;;;10.70;99.90;;;;;;5066512;28;20419;-68
2022/02/09 07:30:52;;;;;;;28.27;6.53;;;10.70;99.90;;;;;;5067941;28;20472;-67
2022/02/09 07:33:18;;;;;;;22.08;6.25;;;10.70;99.90;;;;;;5067722;28;20434;-67
2022/02/09 07:35:43;;;;;;;24.92;6.00;;;10.70;99.90;;;;;;5068120;28;20486;-68
2022/02/09 07:38:09;;;;;;;25.73;6.00;;;10.70;99.90;;;;;;5067152;28;20423;-67
2022/02/09 07:40:35;;;;;;;24.53;5.73;;;10.60;99.90;;;;;;5066992;28;20399;-69
2022/02/09 07:43:09;;;;;;;24.52;5.90;;;10.60;99.90;;;;;;5049688;28;20412;-68
2022/02/09 07:46:00;;;;;;;25.00;5.90;;;10.60;99.90;;;;;;5067739;28;20405;-68
2022/02/09 07:48:53;;;;;;;20.00;5.80;;;10.60;99.90;;;;;;5062821;28;20422;-68
2022/02/09 07:53:56;;;;;;;21.67;5.70;;;10.60;99.90;;;;;;5066248;28;20498;-67
2022/02/09 07:56:22;;;;;;;23.92;6.30;;;10.60;99.90;;;;;;5065835;28;20408;-69
2022/02/09 07:58:50;;;;;;;23.55;6.60;;;10.70;99.90;;;;;;5066839;28;20788;-68
2022/02/09 08:01:16;;;;;;;22.58;6.70;;;10.60;99.90;;;;;;5066310;28;20510;-68
2022/02/09 08:03:41;;;;;;;23.88;6.35;;;10.60;99.90;;;;;;5066416;28;21119;-70
2022/02/09 08:06:08;;;;;;;24.00;6.63;;;10.70;99.90;;;;;;5067367;28;20879;-69
2022/02/09 08:08:35;;;;;;;22.70;6.75;;;10.70;99.90;;;;;;5065899;28;20455;-74
2022/02/09 08:11:14;;;;;;;22.92;6.95;;;10.70;99.90;;;;;;5050523;28;20420;-71
2022/02/09 08:27:22;;;;;;;25.23;6.35;;;10.80;99.90;;;;;;5064300;28;20407;-71
2022/02/09 08:34:56;;;;;;;20.13;6.67;;;10.80;99.90;;;;;;5064905;28;20419;-68
2022/02/09 08:37:23;;;;;;;19.30;6.53;;;10.90;99.90;;;;;;5066021;28;20434;-69
2022/02/09 08:39:49;;;;;;;19.25;6.00;;;10.90;99.90;;;;;;5065182;28;20407;-70
2022/02/09 08:42:16;;;;;;;16.15;6.18;;;11.00;99.90;;;;;;5066683;28;20414;-67
2022/02/09 08:44:42;;;;;;;21.48;6.05;;;10.90;99.90;;;;;;5065829;28;20502;-69
2022/02/09 08:47:08;;;;;;;16.92;5.85;;;10.90;99.90;;;;;;5067786;28;20933;-68
2022/02/09 08:49:33;;;;;;;15.73;5.43;;;10.90;99.90;;;;;;5065358;28;20411;-68
2022/02/09 08:52:00;;;;;;;18.27;5.53;;;10.90;99.90;;;;;;5068249;28;20765;-69
2022/02/09 08:54:26;;;;;;;16.42;5.38;;;10.90;99.90;;;;;;5067887;28;21938;-68
2022/02/09 08:56:54;;;;;;;20.57;6.17;;;10.90;99.90;;;;;;5065580;28;20872;-69
2022/02/09 08:59:29;;;;;;;16.65;6.28;;;10.90;99.90;;;;;;5066522;28;20416;-68
2022/02/09 09:02:03;;;;;;;16.50;6.30;;;10.90;99.90;;;;;;5068655;28;20415;-70
2022/02/09 09:04:35;;;;;;;14.27;5.80;;;10.90;99.90;;;;;;5067062;28;20403;-69
2022/02/09 09:07:09;;;;;;;15.40;6.00;;;10.90;99.90;;;;;;5067602;28;20412;-69
2022/02/09 09:59:07;;;;;;;23.50;8.77;;;11.10;99.90;;;;;;5046116;28;20424;-68
2022/02/09 10:01:52;;;;;;;30.60;9.18;;;11.10;99.90;;;;;;5047010;28;20762;-68
2022/02/09 10:35:24;;;;;;;26.07;8.67;;;11.20;99.90;;;;;;5049113;28;20408;-70
2022/02/09 10:37:50;;;;;;;22.25;8.80;;;11.30;99.90;;;;;;5052989;28;20443;-67
2022/02/09 10:40:41;;;;;;;25.73;9.30;;;11.40;99.90;;;;;;5070133;28;20501;-67
2022/02/09 10:43:32;;;;;;;21.70;9.00;;;11.50;99.90;;;;;;5069836;28;20495;-71
2022/02/09 10:46:44;;;;;;;24.30;8.90;;;11.60;99.90;;;;;;5069688;28;20407;-69
2022/02/09 10:49:10;;;;;;;22.55;8.60;;;11.80;99.90;;;;;;4986215;28;20902;-70
2022/02/09 10:51:42;;;;;;;23.10;8.97;;;11.90;99.90;;;;;;5060346;28;20423;-69
2022/02/09 10:54:09;;;;;;;20.42;7.95;;;12.10;99.90;;;;;;5071029;28;20266;-67
2022/02/09 10:56:41;;;;;;;18.73;8.10;;;11.70;99.90;;;;;;5053300;28;20298;-67
2022/02/09 10:59:09;;;;;;;24.30;8.18;;;11.50;99.90;;;;;;5052085;28;20174;-67
2022/02/09 11:01:36;;;;;;;25.17;7.88;;;11.30;99.90;;;;;;5070387;28;20199;-67
2022/02/09 11:04:02;;;;;;;24.75;7.97;;;11.20;99.90;;;;;;5069275;28;20271;-68
2022/02/09 11:06:31;;;;;;;20.67;7.67;;;11.30;99.90;;;;;;5069903;28;20888;-67
2022/02/09 11:08:57;;;;;;;21.23;8.20;;;12.20;99.90;;;;;;5069628;28;20439;-67
2022/02/09 11:11:23;;;;;;;21.02;7.78;;;12.70;99.90;;;;;;5069701;28;20426;-67
2022/02/09 11:13:50;;;;;;;22.10;9.00;;;12.90;99.90;;;;;;5068231;28;20453;-67
2022/02/09 11:16:21;;;;;;;21.70;8.52;;;12.90;99.90;;;;;;5069892;28;20497;-68
2022/02/09 11:18:49;;;;;;;23.15;7.90;;;12.80;99.90;;;;;;5050718;28;20400;-69
2022/02/09 11:21:15;;;;;;;24.23;8.30;;;12.70;99.90;;;;;;5069538;28;20431;-68
2022/02/09 11:23:41;;;;;;;26.33;8.60;;;12.60;99.90;;;;;;5068130;28;20430;-67
2022/02/09 11:26:48;;;;;;;21.97;8.27;;;12.50;99.90;;;;;;5051710;28;20411;-67
2022/02/09 11:34:50;;;;;;;22.48;8.38;;;12.30;99.90;;;;;;5051131;28;20430;-69
2022/02/09 11:37:27;;;;;;;23.52;8.60;;;12.20;99.90;;;;;;5051961;28;20463;-69
2022/02/09 11:39:56;;;;;;;24.58;8.93;;;12.20;99.90;;;;;;5027410;28;20955;-67
2022/02/09 11:42:27;;;;;;;26.65;9.43;;;12.10;99.90;;;;;;5029927;28;20402;-69
2022/02/09 11:48:08;;;;;;;24.90;8.80;;;12.10;99.90;;;;;;5028417;28;20410;-66
2022/02/09 12:01:12;;;;;;;26.42;9.70;;;12.40;99.90;;;;;;5028958;28;20464;-67
2022/02/09 12:12:17;;;;;;;32.15;10.18;;;12.20;99.90;;;;;;5028181;28;21240;-67
2022/02/09 12:20:00;;;;;;;25.90;9.90;;;12.00;99.90;;;;;;5026949;28;20411;-66
2022/02/09 12:22:29;;;;;;;33.05;10.13;;;11.90;99.90;;;;;;5029088;28;20399;-66
2022/02/09 12:24:56;;;;;;;28.60;10.13;;;11.90;99.90;;;;;;5027596;28;20537;-66
2022/02/09 12:27:22;;;;;;;29.80;10.40;;;11.90;99.90;;;;;;5028134;28;20897;-67
2022/02/09 12:29:58;;;;;;;30.23;11.30;;;11.90;99.90;;;;;;5027930;28;20911;-66
2022/02/09 12:32:29;;;;;;;28.33;10.45;;;11.90;99.90;;;;;;5040161;28;20411;-66
2022/02/09 12:35:08;;;;;;;27.17;10.07;;;11.90;99.90;;;;;;5025800;28;20899;-66
2022/02/09 12:37:39;;;;;;;28.08;9.85;;;11.80;99.90;;;;;;5032385;28;20760;-67
2022/02/09 12:40:08;;;;;;;30.17;9.70;;;11.70;99.90;;;;;;5067671;28;20420;-67
2022/02/09 12:42:37;;;;;;;25.95;9.38;;;11.60;99.90;;;;;;5066842;28;20427;-66
2022/02/09 12:45:07;;;;;;;29.05;9.63;;;11.60;99.90;;;;;;5066359;28;21202;-66
2022/02/09 12:47:37;;;;;;;27.13;9.30;;;11.50;99.90;;;;;;5066513;28;20405;-66
2022/02/09 12:50:09;;;;;;;32.28;9.93;;;11.40;99.90;;;;;;5066275;28;20790;-66
2022/02/09 12:52:37;;;;;;;30.33;9.93;;;11.40;99.90;;;;;;5067037;28;20442;-69
2022/02/09 12:55:12;;;;;;;31.77;10.45;;;11.40;99.90;;;;;;5065369;28;20408;-66
2022/02/09 12:57:55;;;;;;;30.08;10.77;;;11.40;99.90;;;;;;5067127;28;20466;-66
2022/02/09 13:00:28;;;;;;;26.75;10.27;;;11.40;99.90;;;;;;5063263;28;20465;-66
2022/02/09 13:03:02;;;;;;;31.37;10.97;;;11.40;99.90;;;;;;5046665;28;20415;-67
2022/02/09 13:05:29;;;;;;;33.40;11.97;;;11.30;99.90;;;;;;5066847;28;20423;-66
2022/02/09 13:08:00;;;;;;;33.38;11.75;;;11.30;99.90;;;;;;5066913;28;20403;-68
2022/02/09 13:10:31;;;;;;;33.42;12.80;;;11.30;99.90;;;;;;5067156;28;20426;-68
2022/02/09 13:13:05;;;;;;;32.13;13.02;;;11.20;99.90;;;;;;5067144;28;20477;-66
2022/02/09 13:15:36;;;;;;;35.03;12.95;;;11.20;99.90;;;;;;5048111;28;20415;-66
2022/02/09 13:23:37;;;;;;;30.60;12.93;;;11.20;99.90;;;;;;5067490;28;20423;-67
2022/02/09 13:26:36;;;;;;;34.42;12.57;;;11.20;99.90;;;;;;5066941;28;20403;-67
2022/02/09 14:02:52;;;;;;;34.67;11.73;;;11.30;99.90;;;;;;5068025;28;20403;-66
2022/02/09 14:50:02;;;;;;;37.05;11.52;;;10.80;99.90;;;;;;5050245;28;20427;-66
2022/02/09 14:57:28;;;;;;;30.70;11.07;;;10.90;99.90;;;;;;5008694;28;20509;-67
2022/02/09 15:07:47;;;;;;;33.70;9.80;;;11.00;99.90;;;;;;5053387;28;20418;-66
2022/02/09 15:10:41;;;;;;;34.37;10.67;;;11.00;99.90;;;;;;5067577;28;20953;-65
2022/02/09 15:13:17;;;;;;;33.22;11.15;;;11.00;99.90;;;;;;5069593;28;20439;-66
2022/02/09 15:15:59;;;;;;;36.88;10.65;;;11.00;99.90;;;;;;5070094;28;20456;-65
2022/02/09 15:19:04;;;;;;;35.75;11.13;;;11.00;99.90;;;;;;5066747;28;20415;-66
2022/02/09 15:24:07;;;;;;;41.22;11.40;;;11.00;99.90;;;;;;5068290;28;20537;-66
2022/02/09 15:26:34;;;;;;;35.38;11.32;;;11.00;99.90;;;;;;5070247;28;20399;-66
2022/02/09 15:29:00;;;;;;;40.80;11.88;;;11.00;99.90;;;;;;5068663;28;20487;-66
2022/02/09 15:31:36;;;;;;;34.57;10.93;;;11.00;99.90;;;;;;5069638;28;20510;-66
2022/02/09 15:34:12;;;;;;;40.22;11.65;;;11.00;99.90;;;;;;5068295;28;20411;-65
2022/02/09 15:39:25;;;;;;;39.03;11.27;;;10.90;99.90;;;;;;5040109;28;21031;-66
2022/02/09 16:09:21;;;;;;;44.97;11.43;;;10.80;99.90;;;;;;5066628;28;20484;-66
2022/02/09 16:22:50;;;;;;;38.05;11.40;;;10.70;99.90;;;;;;5067514;28;20929;-66
2022/02/09 16:33:35;;;;;;;37.35;10.75;;;10.70;99.90;;;;;;5065334;28;20446;-67
2022/02/09 16:46:27;;;;;;;45.58;12.57;;;10.60;99.90;;;;;;5066469;28;20949;-67
2022/02/09 16:51:53;;;;;;;43.42;11.68;;;10.60;99.90;;;;;;5042127;28;20497;-66
2022/02/09 17:20:53;;;;;;;50.50;12.43;;;10.70;99.90;;;;;;5065988;28;20891;-66
2022/02/09 17:23:19;;;;;;;43.55;12.80;;;10.70;99.90;;;;;;5065641;28;20903;-66
2022/02/09 17:25:45;;;;;;;46.50;12.23;;;10.70;99.90;;;;;;5064732;28;20415;-67
2022/02/09 17:28:14;;;;;;;38.60;12.47;;;10.80;99.90;;;;;;5065981;28;20411;-67
2022/02/09 17:36:17;;;;;;;41.53;10.55;;;10.80;99.90;;;;;;5065161;28;20812;-66
2022/02/09 17:57:44;;;;;;;41.80;11.98;;;10.70;99.90;;;;;;5065306;28;20733;-66
2022/02/09 18:00:15;;;;;;;48.50;14.93;;;10.70;99.90;;;;;;5062559;28;20415;-66
2022/02/09 18:02:43;;;;;;;43.33;13.38;;;10.70;99.90;;;;;;5065469;28;20457;-66
2022/02/09 18:07:48;;;;;;;43.47;13.13;;;10.70;99.90;;;;;;5064297;28;20760;-66
2022/02/09 18:13:03;;;;;;;39.70;10.85;;;10.80;99.90;;;;;;5064378;28;20399;-65
2022/02/09 18:29:40;;;;;;;38.92;11.18;;;10.80;99.90;;;;;;5064639;28;20489;-66
2022/02/09 19:04:02;;;;;;;36.72;13.18;;;10.90;99.90;;;;;;5047185;28;20449;-67
2022/02/09 19:07:36;;;;;;;39.50;13.00;;;10.90;99.90;;;;;;5064785;28;20407;-66
2022/02/09 19:15:09;;;;;;;41.60;12.73;;;10.90;99.90;;;;;;5066083;28;20929;-66
2022/02/09 19:17:52;;;;;;;36.88;12.63;;;10.90;99.90;;;;;;5067032;28;20400;-67
2022/02/09 19:28:59;;;;;;;39.75;12.15;;;10.90;99.90;;;;;;5061985;28;20408;-67
2022/02/09 19:31:12;;;;;;;35.53;12.70;;;10.90;99.90;;;;;;5047272;28;20413;-67
2022/02/09 19:55:23;;;;;;;36.40;15.27;;;11.00;99.90;;;;;;5066168;28;20418;-66
2022/02/09 19:57:50;;;;;;;43.20;15.85;;;11.10;99.90;;;;;;5046045;28;20404;-66
2022/02/09 20:00:20;;;;;;;47.40;18.85;;;11.10;99.90;;;;;;5067190;28;21194;-66
2022/02/09 20:02:47;;;;;;;46.92;19.70;;;11.10;99.90;;;;;;5064243;28;20465;-66
2022/02/09 20:05:14;;;;;;;49.60;19.58;;;11.10;99.90;;;;;;5061485;28;20419;-66
2022/02/09 20:07:40;;;;;;;43.13;20.15;;;11.10;99.90;;;;;;5061258;28;20502;-66
2022/02/09 20:10:06;;;;;;;45.20;21.47;;;11.10;99.90;;;;;;5061391;28;20482;-66
2022/02/09 20:12:32;;;;;;;43.97;21.95;;;11.00;99.90;;;;;;5059165;28;20513;-66
2022/02/09 20:14:57;;;;;;;45.73;22.23;;;11.00;99.90;;;;;;5063976;28;20902;-65
2022/02/09 20:17:23;;;;;;;47.78;22.63;;;11.00;99.90;;;;;;5063108;28;21103;-66
2022/02/09 20:19:55;;;;;;;47.30;22.80;;;11.00;99.90;;;;;;5061315;28;20413;-66
2022/02/09 20:22:21;;;;;;;49.22;22.65;;;11.00;99.90;;;;;;5058649;28;20411;-67
2022/02/09 20:24:47;;;;;;;47.88;22.60;;;10.90;99.90;;;;;;5059080;28;20423;-66
2022/02/09 20:27:17;;;;;;;51.10;23.58;;;10.90;99.90;;;;;;5061515;28;20506;-67
2022/02/09 20:29:43;;;;;;;46.15;23.27;;;10.90;99.90;;;;;;5064850;28;20411;-67
2022/02/09 20:32:27;;;;;;;45.78;24.08;;;10.80;99.90;;;;;;5065087;28;20891;-66
2022/02/09 20:34:58;;;;;;;48.78;24.67;;;10.80;99.90;;;;;;5046490;28;20962;-66
2022/02/09 20:37:26;;;;;;;47.25;23.50;;;10.80;99.90;;;;;;5077768;28;20525;-67
2022/02/09 20:40:08;;;;;;;48.17;23.67;;;10.80;99.90;;;;;;5065683;28;20960;-67
2022/02/09 20:42:34;;;;;;;49.00;24.33;;;10.80;99.90;;;;;;5066927;28;20426;-66
2022/02/09 20:45:09;;;;;;;49.33;24.00;;;10.80;99.90;;;;;;5066671;28;20428;-66
2022/02/09 20:47:36;;;;;;;50.83;23.92;;;10.80;99.90;;;;;;5064005;28;20439;-66
2022/02/09 20:50:03;;;;;;;54.13;25.33;;;10.70;99.90;;;;;;5065517;28;20416;-66
2022/02/09 20:52:28;;;;;;;49.95;24.50;;;10.80;99.90;;;;;;5066598;28;20748;-67
2022/02/09 20:54:54;;;;;;;43.75;23.58;;;10.70;99.90;;;;;;5066738;28;20410;-67
2022/02/09 20:57:20;;;;;;;53.17;23.60;;;10.70;99.90;;;;;;5065509;28;20458;-67
2022/02/09 20:59:49;;;;;;;54.85;23.48;;;10.80;99.90;;;;;;5066582;28;20447;-66
2022/02/09 21:03:07;;;;;;;49.90;23.47;;;10.80;99.90;;;;;;5066195;28;20970;-66
2022/02/09 21:05:24;;;;;;;47.60;23.25;;;10.80;99.90;;;;;;5055626;28;20886;-65
2022/02/09 21:07:58;;;;;;;46.78;22.52;;;10.80;99.90;;;;;;5065871;28;20733;-65
2022/02/09 21:10:38;;;;;;;47.15;22.73;;;10.80;99.90;;;;;;5049838;28;20765;-65
2022/02/09 21:13:11;;;;;;;46.92;22.77;;;10.80;99.90;;;;;;5066916;28;20415;-67
2022/02/09 21:15:52;;;;;;;43.88;22.80;;;10.80;99.90;;;;;;5049556;28;20437;-66
2022/02/09 21:24:20;;;;;;;50.17;22.45;;;10.80;99.90;;;;;;5066740;28;20465;-66
2022/02/09 21:41:54;;;;;;;40.47;20.38;;;10.80;99.90;;;;;;5062690;28;20876;-66
2022/02/09 21:57:03;;;;;;;39.40;16.60;;;10.70;99.90;;;;;;5065745;28;20654;-65
2022/02/09 22:16:17;;;;;;;39.83;16.48;;;10.70;99.90;;;;;;5066835;28;20423;-65
2022/02/09 22:29:23;;;;;;;49.80;24.00;;;10.70;99.90;;;;;;5070109;28;20399;-65
2022/02/09 22:35:04;;;;;;;46.00;24.50;;;10.70;99.90;;;;;;5052599;28;20453;-66
2022/02/09 22:46:23;;;;;;;49.15;25.75;;;10.70;99.90;;;;;;5070629;28;20503;-66
2022/02/09 22:48:58;;;;;;;48.60;25.80;;;10.70;99.90;;;;;;5067358;28;20431;-67
2022/02/09 22:56:35;;;;;;;45.88;25.35;;;10.70;99.90;;;;;;5070412;28;20736;-67
2022/02/09 22:59:04;;;;;;;44.20;24.77;;;10.70;99.90;;;;;;5070122;28;20415;-67
2022/02/09 23:04:32;;;;;;;48.42;25.30;;;10.70;99.90;;;;;;5069144;28;20784;-67
2022/02/09 23:06:57;;;;;;;51.20;26.92;;;10.70;99.90;;;;;;5070151;28;20438;-66
2022/02/09 23:12:18;;;;;;;47.10;25.73;;;10.70;99.90;;;;;;5068099;28;20427;-67
